Aérodrome :
LOGIN :

S'inscrire | Disclaimer

   EN    FR    IT 

 










Légende :    VFR   VFR Marginal   IFR   IFR Intensif   IFR Très Intensif
Visi : 
Plafond : 
>= 8 km
>= 3000ft
5 à 8 km
1000 à 3000 ft
1500m à 5 km
500 à 1000 ft
800 à 1500m
200 à 500 ft
< 800m
< 200 ft
Symboles :   Orages  Brouillard  Fortes neiges  Fortes précipitations  Vent > 20 kt
SIGMETs :   Divers  Orages  Givrage  Turbulence  Onde Orograph.  Cendres Volcan.







- Altitude de l'aérodrome : 510 ft


LJCE - Cerklje

DERNIER METAR :
  • 142230Z AUTO VRB01KT 0450 R09/1300U -SHRA FG NSC 04/03 Q1001

METARs EXPIRÉS :
  • 142200Z AUTO 27002KT 0250 R09///// FG FEW004/// BKN074/// 03/03 Q1002
  • 142130Z AUTO VRB02KT 2500 R09/1000N FG FEW048/// 04/03 Q1002
  • 142100Z AUTO 00000KT 1900 R09/1200N -SHRA FG FEW027/// SCT055/// BKN080/// 04/04 Q1003
  • 142030Z AUTO 00000KT 0100 R09///// FG SCT004/// BKN058/// 05/04 Q1003
  • 142000Z 11001KT 9999 SCT047 06/05 Q1003 RMK BLU
  • 141930Z VRB01KT 9999 BKN043 06/05 Q1004 RMK BLU

TAF TAF LJCE
Valide du 14 à 21h jusqu'au 15 à 06h UTC


142000Z 1421/1506 25005KT 9999 BKN035
TEMPO 1421/1506 -RA OVC020
Pas de NOTAMs connus pour ce terrain.



MET'MAP, la Météo Aéronautique d'un coup d'oeil ! - Copyright ORBIFLY Décembre 2007 - Disclaimer

ORBIFLY MET'MAP TEAM :

Programmation & Développement : Alexandra Zaïnal
Conception & Développement : Baudouin d'Aumeries
Co-Programmation & Développement : Marc-Olivier Méhu
Soutien technique & logistique : Manuel Goepfert

Contact : metmap@orbifly.com




SOURCES & CREDITS :

   NOAA